sensor_id;sensor_type;location;lat;lon;timestamp;temperature;humidity
14786;DHT22;7484;49.906;9.058;2023-04-09T00:01:32;7.30;99.90
14786;DHT22;7484;49.906;9.058;2023-04-09T00:04:00;7.40;99.90
14786;DHT22;7484;49.906;9.058;2023-04-09T00:06:27;7.50;99.90
14786;DHT22;7484;49.906;9.058;2023-04-09T00:08:53;7.30;99.90
14786;DHT22;7484;49.906;9.058;2023-04-09T00:11:20;7.20;99.90
14786;DHT22;7484;49.906;9.058;2023-04-09T00:13:47;7.40;99.90
14786;DHT22;7484;49.906;9.058;2023-04-09T00:16:14;7.40;99.90
14786;DHT22;7484;49.906;9.058;2023-04-09T00:18:40;7.30;99.90
14786;DHT22;7484;49.906;9.058;2023-04-09T00:21:08;7.30;99.90
14786;DHT22;7484;49.906;9.058;2023-04-09T00:23:35;7.30;99.90
14786;DHT22;7484;49.906;9.058;2023-04-09T00:26:02;7.30;99.90
14786;DHT22;7484;49.906;9.058;2023-04-09T00:28:29;7.00;99.90
14786;DHT22;7484;49.906;9.058;2023-04-09T00:30:55;6.90;99.90
14786;DHT22;7484;49.906;9.058;2023-04-09T00:33:22;6.80;99.90
14786;DHT22;7484;49.906;9.058;2023-04-09T00:35:49;6.60;99.90
14786;DHT22;7484;49.906;9.058;2023-04-09T00:38:17;6.30;99.90
14786;DHT22;7484;49.906;9.058;2023-04-09T00:40:48;6.30;99.90
14786;DHT22;7484;49.906;9.058;2023-04-09T00:43:15;6.30;99.90
14786;DHT22;7484;49.906;9.058;2023-04-09T00:45:42;6.20;99.90
14786;DHT22;7484;49.906;9.058;2023-04-09T00:48:09;6.20;99.90
14786;DHT22;7484;49.906;9.058;2023-04-09T00:50:36;6.00;99.90
14786;DHT22;7484;49.906;9.058;2023-04-09T00:53:04;5.90;99.90
14786;DHT22;7484;49.906;9.058;2023-04-09T00:55:33;5.90;99.90
14786;DHT22;7484;49.906;9.058;2023-04-09T00:58:00;5.90;99.90
14786;DHT22;7484;49.906;9.058;2023-04-09T01:00:27;5.90;99.90
14786;DHT22;7484;49.906;9.058;2023-04-09T01:02:55;5.80;99.90
14786;DHT22;7484;49.906;9.058;2023-04-09T01:05:23;5.60;99.90
14786;DHT22;7484;49.906;9.058;2023-04-09T01:08:00;5.60;99.90
14786;DHT22;7484;49.906;9.058;2023-04-09T01:10:37;5.60;99.90
14786;DHT22;7484;49.906;9.058;2023-04-09T01:13:07;5.70;99.90
14786;DHT22;7484;49.906;9.058;2023-04-09T01:15:40;5.80;99.90
14786;DHT22;7484;49.906;9.058;2023-04-09T01:18:13;5.90;99.90
14786;DHT22;7484;49.906;9.058;2023-04-09T01:20:47;5.90;99.90
14786;DHT22;7484;49.906;9.058;2023-04-09T01:23:34;5.90;99.90
14786;DHT22;7484;49.906;9.058;2023-04-09T01:26:16;5.80;99.90
14786;DHT22;7484;49.906;9.058;2023-04-09T01:28:52;5.70;99.90
14786;DHT22;7484;49.906;9.058;2023-04-09T01:31:24;5.50;99.90
14786;DHT22;7484;49.906;9.058;2023-04-09T01:33:52;5.40;99.90
14786;DHT22;7484;49.906;9.058;2023-04-09T01:36:19;5.40;99.90
14786;DHT22;7484;49.906;9.058;2023-04-09T01:38:47;5.50;99.90
14786;DHT22;7484;49.906;9.058;2023-04-09T01:41:19;5.50;99.90
14786;DHT22;7484;49.906;9.058;2023-04-09T01:43:49;5.30;99.90
14786;DHT22;7484;49.906;9.058;2023-04-09T01:46:17;5.10;99.90
14786;DHT22;7484;49.906;9.058;2023-04-09T01:48:45;4.90;99.90
14786;DHT22;7484;49.906;9.058;2023-04-09T01:51:12;4.80;99.90
14786;DHT22;7484;49.906;9.058;2023-04-09T01:53:39;4.80;99.90
14786;DHT22;7484;49.906;9.058;2023-04-09T01:56:06;4.90;99.90
14786;DHT22;7484;49.906;9.058;2023-04-09T01:58:33;4.80;99.90
14786;DHT22;7484;49.906;9.058;2023-04-09T02:01:05;4.80;99.90
14786;DHT22;7484;49.906;9.058;2023-04-09T02:03:38;4.80;99.90
14786;DHT22;7484;49.906;9.058;2023-04-09T02:06:11;4.70;99.90
14786;DHT22;7484;49.906;9.058;2023-04-09T02:08:43;4.70;99.90
14786;DHT22;7484;49.906;9.058;2023-04-09T02:11:10;4.70;99.90
14786;DHT22;7484;49.906;9.058;2023-04-09T02:13:39;4.40;99.90
14786;DHT22;7484;49.906;9.058;2023-04-09T02:16:10;4.20;99.90
14786;DHT22;7484;49.906;9.058;2023-04-09T02:18:38;4.30;99.90
14786;DHT22;7484;49.906;9.058;2023-04-09T02:21:06;4.40;99.90
14786;DHT22;7484;49.906;9.058;2023-04-09T02:23:32;4.40;99.90
14786;DHT22;7484;49.906;9.058;2023-04-09T02:26:00;4.50;99.90
14786;DHT22;7484;49.906;9.058;2023-04-09T02:28:27;4.70;99.90
14786;DHT22;7484;49.906;9.058;2023-04-09T02:30:54;4.80;99.90
14786;DHT22;7484;49.906;9.058;2023-04-09T02:33:22;4.90;99.90
14786;DHT22;7484;49.906;9.058;2023-04-09T02:35:49;4.80;99.90
14786;DHT22;7484;49.906;9.058;2023-04-09T02:38:15;4.70;99.90
14786;DHT22;7484;49.906;9.058;2023-04-09T02:40:42;4.60;99.90
14786;DHT22;7484;49.906;9.058;2023-04-09T02:43:09;4.50;99.90
14786;DHT22;7484;49.906;9.058;2023-04-09T02:45:36;4.40;99.90
14786;DHT22;7484;49.906;9.058;2023-04-09T02:48:03;4.30;99.90
14786;DHT22;7484;49.906;9.058;2023-04-09T02:50:34;4.30;99.90
14786;DHT22;7484;49.906;9.058;2023-04-09T02:53:01;4.10;99.90
14786;DHT22;7484;49.906;9.058;2023-04-09T02:55:28;3.90;99.90
14786;DHT22;7484;49.906;9.058;2023-04-09T02:57:55;3.90;99.90
14786;DHT22;7484;49.906;9.058;2023-04-09T03:00:22;3.90;99.90
14786;DHT22;7484;49.906;9.058;2023-04-09T03:02:49;4.00;99.90
14786;DHT22;7484;49.906;9.058;2023-04-09T03:05:16;4.00;99.90
14786;DHT22;7484;49.906;9.058;2023-04-09T03:07:44;4.10;99.90
14786;DHT22;7484;49.906;9.058;2023-04-09T03:10:11;4.10;99.90
14786;DHT22;7484;49.906;9.058;2023-04-09T03:12:38;4.10;99.90
14786;DHT22;7484;49.906;9.058;2023-04-09T03:15:06;4.20;99.90
14786;DHT22;7484;49.906;9.058;2023-04-09T03:17:33;4.20;99.90
14786;DHT22;7484;49.906;9.058;2023-04-09T03:19:59;4.30;99.90
14786;DHT22;7484;49.906;9.058;2023-04-09T03:22:35;4.30;99.90
14786;DHT22;7484;49.906;9.058;2023-04-09T03:25:04;4.60;99.90
14786;DHT22;7484;49.906;9.058;2023-04-09T03:27:32;4.80;99.90
14786;DHT22;7484;49.906;9.058;2023-04-09T03:30:01;4.80;99.90
14786;DHT22;7484;49.906;9.058;2023-04-09T03:32:34;4.90;99.90
14786;DHT22;7484;49.906;9.058;2023-04-09T03:35:01;5.00;99.90
14786;DHT22;7484;49.906;9.058;2023-04-09T03:37:29;5.00;99.90
14786;DHT22;7484;49.906;9.058;2023-04-09T03:39:56;5.10;99.90
14786;DHT22;7484;49.906;9.058;2023-04-09T03:42:27;5.20;99.90
14786;DHT22;7484;49.906;9.058;2023-04-09T03:44:54;5.30;99.90
14786;DHT22;7484;49.906;9.058;2023-04-09T03:47:27;5.30;99.90
14786;DHT22;7484;49.906;9.058;2023-04-09T03:49:55;5.30;99.90
14786;DHT22;7484;49.906;9.058;2023-04-09T03:52:26;5.40;99.90
14786;DHT22;7484;49.906;9.058;2023-04-09T03:55:06;5.40;99.90
14786;DHT22;7484;49.906;9.058;2023-04-09T03:57:36;5.50;99.90
14786;DHT22;7484;49.906;9.058;2023-04-09T04:00:06;5.30;99.90
14786;DHT22;7484;49.906;9.058;2023-04-09T04:02:49;5.20;99.90
14786;DHT22;7484;49.906;9.058;2023-04-09T04:05:22;5.20;99.90
14786;DHT22;7484;49.906;9.058;2023-04-09T04:07:49;5.40;99.90
14786;DHT22;7484;49.906;9.058;2023-04-09T04:10:23;5.50;99.90
14786;DHT22;7484;49.906;9.058;2023-04-09T04:12:52;5.60;99.90
14786;DHT22;7484;49.906;9.058;2023-04-09T04:15:28;5.70;99.90
14786;DHT22;7484;49.906;9.058;2023-04-09T04:17:55;5.70;99.90
14786;DHT22;7484;49.906;9.058;2023-04-09T04:20:34;5.80;99.90
14786;DHT22;7484;49.906;9.058;2023-04-09T04:23:06;5.60;99.90
14786;DHT22;7484;49.906;9.058;2023-04-09T04:25:39;5.50;99.90
14786;DHT22;7484;49.906;9.058;2023-04-09T04:28:09;5.50;99.90
14786;DHT22;7484;49.906;9.058;2023-04-09T04:30:40;5.50;99.90
14786;DHT22;7484;49.906;9.058;2023-04-09T04:33:07;5.40;99.90
14786;DHT22;7484;49.906;9.058;2023-04-09T04:35:41;5.40;99.90
14786;DHT22;7484;49.906;9.058;2023-04-09T04:38:21;5.30;99.90
14786;DHT22;7484;49.906;9.058;2023-04-09T04:40:48;5.30;99.90
14786;DHT22;7484;49.906;9.058;2023-04-09T04:43:17;5.20;99.90
14786;DHT22;7484;49.906;9.058;2023-04-09T04:45:44;5.20;99.90
14786;DHT22;7484;49.906;9.058;2023-04-09T04:48:12;5.10;99.90
14786;DHT22;7484;49.906;9.058;2023-04-09T04:50:38;5.00;99.90
14786;DHT22;7484;49.906;9.058;2023-04-09T04:53:08;5.00;99.90
14786;DHT22;7484;49.906;9.058;2023-04-09T04:55:42;5.00;99.90
14786;DHT22;7484;49.906;9.058;2023-04-09T04:58:13;4.90;99.90
14786;DHT22;7484;49.906;9.058;2023-04-09T05:00:46;5.00;99.90
14786;DHT22;7484;49.906;9.058;2023-04-09T05:03:13;5.10;99.90
14786;DHT22;7484;49.906;9.058;2023-04-09T05:06:00;5.30;99.90
14786;DHT22;7484;49.906;9.058;2023-04-09T05:08:34;5.50;99.90
14786;DHT22;7484;49.906;9.058;2023-04-09T05:11:01;5.70;99.90
14786;DHT22;7484;49.906;9.058;2023-04-09T05:13:35;5.80;99.90
14786;DHT22;7484;49.906;9.058;2023-04-09T05:16:07;5.80;99.90
14786;DHT22;7484;49.906;9.058;2023-04-09T05:18:42;5.80;99.90
14786;DHT22;7484;49.906;9.058;2023-04-09T05:21:08;5.80;99.90
14786;DHT22;7484;49.906;9.058;2023-04-09T05:23:36;6.00;99.90
14786;DHT22;7484;49.906;9.058;2023-04-09T05:26:03;6.10;99.90
14786;DHT22;7484;49.906;9.058;2023-04-09T05:28:37;6.10;99.90
14786;DHT22;7484;49.906;9.058;2023-04-09T05:31:12;6.10;99.90
14786;DHT22;7484;49.906;9.058;2023-04-09T05:33:46;6.10;99.90
14786;DHT22;7484;49.906;9.058;2023-04-09T05:36:19;6.20;99.90
14786;DHT22;7484;49.906;9.058;2023-04-09T05:38:46;6.20;99.90
14786;DHT22;7484;49.906;9.058;2023-04-09T05:41:13;6.30;99.90
14786;DHT22;7484;49.906;9.058;2023-04-09T05:43:51;6.30;99.90
14786;DHT22;7484;49.906;9.058;2023-04-09T05:46:19;6.30;99.90
14786;DHT22;7484;49.906;9.058;2023-04-09T05:48:48;6.20;99.90
14786;DHT22;7484;49.906;9.058;2023-04-09T05:51:15;6.30;99.90
14786;DHT22;7484;49.906;9.058;2023-04-09T05:53:42;6.40;99.90
14786;DHT22;7484;49.906;9.058;2023-04-09T05:56:13;6.50;99.90
14786;DHT22;7484;49.906;9.058;2023-04-09T05:58:50;6.60;99.90
14786;DHT22;7484;49.906;9.058;2023-04-09T06:01:17;6.50;99.90
14786;DHT22;7484;49.906;9.058;2023-04-09T06:03:45;6.50;99.90
14786;DHT22;7484;49.906;9.058;2023-04-09T06:06:12;6.50;99.90
14786;DHT22;7484;49.906;9.058;2023-04-09T06:08:38;6.60;99.90
14786;DHT22;7484;49.906;9.058;2023-04-09T06:11:08;6.70;99.90
14786;DHT22;7484;49.906;9.058;2023-04-09T06:13:35;6.70;99.90
14786;DHT22;7484;49.906;9.058;2023-04-09T06:16:03;6.70;99.90
14786;DHT22;7484;49.906;9.058;2023-04-09T06:18:30;6.70;99.90
14786;DHT22;7484;49.906;9.058;2023-04-09T06:21:02;6.80;99.90
14786;DHT22;7484;49.906;9.058;2023-04-09T06:23:28;6.80;99.90
14786;DHT22;7484;49.906;9.058;2023-04-09T06:25:55;6.70;99.90
14786;DHT22;7484;49.906;9.058;2023-04-09T06:28:22;6.60;99.90
14786;DHT22;7484;49.906;9.058;2023-04-09T06:30:49;6.40;99.90
14786;DHT22;7484;49.906;9.058;2023-04-09T06:33:16;6.30;99.90
14786;DHT22;7484;49.906;9.058;2023-04-09T06:35:42;6.20;99.90
14786;DHT22;7484;49.906;9.058;2023-04-09T06:38:10;6.20;99.90
14786;DHT22;7484;49.906;9.058;2023-04-09T06:40:38;6.30;99.90
14786;DHT22;7484;49.906;9.058;2023-04-09T06:43:05;6.40;99.90
14786;DHT22;7484;49.906;9.058;2023-04-09T06:45:40;6.50;99.90
14786;DHT22;7484;49.906;9.058;2023-04-09T06:48:07;6.70;99.90
14786;DHT22;7484;49.906;9.058;2023-04-09T06:50:34;6.90;99.90
14786;DHT22;7484;49.906;9.058;2023-04-09T06:53:01;7.00;99.90
14786;DHT22;7484;49.906;9.058;2023-04-09T06:55:29;7.10;99.90
14786;DHT22;7484;49.906;9.058;2023-04-09T06:57:56;7.00;99.90
14786;DHT22;7484;49.906;9.058;2023-04-09T07:00:22;7.10;99.90
14786;DHT22;7484;49.906;9.058;2023-04-09T07:02:49;7.30;99.90
14786;DHT22;7484;49.906;9.058;2023-04-09T07:05:17;7.50;99.90
14786;DHT22;7484;49.906;9.058;2023-04-09T07:07:44;7.50;99.90
14786;DHT22;7484;49.906;9.058;2023-04-09T07:10:11;7.60;99.90
14786;DHT22;7484;49.906;9.058;2023-04-09T07:12:39;7.70;99.90
14786;DHT22;7484;49.906;9.058;2023-04-09T07:15:06;7.80;99.90
14786;DHT22;7484;49.906;9.058;2023-04-09T07:17:34;7.90;99.90
14786;DHT22;7484;49.906;9.058;2023-04-09T07:20:00;7.90;99.90
14786;DHT22;7484;49.906;9.058;2023-04-09T07:22:28;7.90;99.90
14786;DHT22;7484;49.906;9.058;2023-04-09T07:24:56;8.00;99.90
14786;DHT22;7484;49.906;9.058;2023-04-09T07:27:24;8.10;99.90
14786;DHT22;7484;49.906;9.058;2023-04-09T07:29:53;8.20;99.90
14786;DHT22;7484;49.906;9.058;2023-04-09T07:32:20;8.30;99.90
14786;DHT22;7484;49.906;9.058;2023-04-09T07:34:47;8.40;99.90
14786;DHT22;7484;49.906;9.058;2023-04-09T07:37:14;8.50;99.90
14786;DHT22;7484;49.906;9.058;2023-04-09T07:39:40;8.60;99.90
14786;DHT22;7484;49.906;9.058;2023-04-09T07:42:08;8.70;99.90
14786;DHT22;7484;49.906;9.058;2023-04-09T07:44:35;8.90;99.90
14786;DHT22;7484;49.906;9.058;2023-04-09T07:47:04;8.90;99.90
14786;DHT22;7484;49.906;9.058;2023-04-09T07:49:31;9.00;99.90
14786;DHT22;7484;49.906;9.058;2023-04-09T07:51:58;9.00;99.90
14786;DHT22;7484;49.906;9.058;2023-04-09T07:54:25;9.10;99.90
14786;DHT22;7484;49.906;9.058;2023-04-09T07:56:53;9.10;99.90
14786;DHT22;7484;49.906;9.058;2023-04-09T07:59:20;9.20;99.90
14786;DHT22;7484;49.906;9.058;2023-04-09T08:01:47;9.30;99.90
14786;DHT22;7484;49.906;9.058;2023-04-09T08:04:15;9.40;99.90
14786;DHT22;7484;49.906;9.058;2023-04-09T08:06:42;9.60;99.90
14786;DHT22;7484;49.906;9.058;2023-04-09T08:09:12;9.80;99.90
14786;DHT22;7484;49.906;9.058;2023-04-09T08:11:39;9.80;99.90
14786;DHT22;7484;49.906;9.058;2023-04-09T08:14:05;9.80;99.90
14786;DHT22;7484;49.906;9.058;2023-04-09T08:16:37;9.90;99.90
14786;DHT22;7484;49.906;9.058;2023-04-09T08:19:04;9.90;99.90
14786;DHT22;7484;49.906;9.058;2023-04-09T08:21:32;9.90;99.90
14786;DHT22;7484;49.906;9.058;2023-04-09T08:24:00;10.10;99.90
14786;DHT22;7484;49.906;9.058;2023-04-09T08:26:29;10.10;99.90
14786;DHT22;7484;49.906;9.058;2023-04-09T08:28:56;10.10;99.90
14786;DHT22;7484;49.906;9.058;2023-04-09T08:31:23;10.20;99.90
14786;DHT22;7484;49.906;9.058;2023-04-09T08:33:50;10.20;99.90
14786;DHT22;7484;49.906;9.058;2023-04-09T08:36:18;10.40;99.90
14786;DHT22;7484;49.906;9.058;2023-04-09T08:38:46;10.50;99.90
14786;DHT22;7484;49.906;9.058;2023-04-09T08:41:17;10.50;99.90
14786;DHT22;7484;49.906;9.058;2023-04-09T08:43:45;10.40;99.90
14786;DHT22;7484;49.906;9.058;2023-04-09T08:46:13;10.60;99.90
14786;DHT22;7484;49.906;9.058;2023-04-09T08:48:42;10.70;99.90
14786;DHT22;7484;49.906;9.058;2023-04-09T08:51:12;10.90;99.90
14786;DHT22;7484;49.906;9.058;2023-04-09T08:53:42;11.00;99.90
14786;DHT22;7484;49.906;9.058;2023-04-09T08:56:11;11.10;99.90
14786;DHT22;7484;49.906;9.058;2023-04-09T08:58:41;11.10;99.90
14786;DHT22;7484;49.906;9.058;2023-04-09T09:01:18;11.30;99.90
14786;DHT22;7484;49.906;9.058;2023-04-09T09:03:57;11.40;99.90
14786;DHT22;7484;49.906;9.058;2023-04-09T09:06:26;11.70;99.90
14786;DHT22;7484;49.906;9.058;2023-04-09T09:09:04;12.10;99.90
14786;DHT22;7484;49.906;9.058;2023-04-09T09:11:33;12.40;99.90
14786;DHT22;7484;49.906;9.058;2023-04-09T09:14:02;12.60;99.90
14786;DHT22;7484;49.906;9.058;2023-04-09T09:16:29;12.80;99.90
14786;DHT22;7484;49.906;9.058;2023-04-09T09:18:57;12.80;99.90
14786;DHT22;7484;49.906;9.058;2023-04-09T09:21:26;12.50;99.90
14786;DHT22;7484;49.906;9.058;2023-04-09T09:23:53;12.60;99.90
14786;DHT22;7484;49.906;9.058;2023-04-09T09:26:22;12.80;99.90
14786;DHT22;7484;49.906;9.058;2023-04-09T09:28:51;13.00;99.90
14786;DHT22;7484;49.906;9.058;2023-04-09T09:31:19;13.20;99.90
14786;DHT22;7484;49.906;9.058;2023-04-09T09:33:47;13.20;99.90
14786;DHT22;7484;49.906;9.058;2023-04-09T09:36:15;13.10;99.90
14786;DHT22;7484;49.906;9.058;2023-04-09T09:38:56;13.10;99.90
14786;DHT22;7484;49.906;9.058;2023-04-09T09:41:23;12.80;99.90
14786;DHT22;7484;49.906;9.058;2023-04-09T09:43:52;12.60;99.90
14786;DHT22;7484;49.906;9.058;2023-04-09T09:46:20;12.90;99.90
14786;DHT22;7484;49.906;9.058;2023-04-09T09:48:47;13.10;99.90
14786;DHT22;7484;49.906;9.058;2023-04-09T09:51:14;13.10;99.90
14786;DHT22;7484;49.906;9.058;2023-04-09T09:53:43;12.90;99.90
14786;DHT22;7484;49.906;9.058;2023-04-09T09:56:13;12.80;99.90
14786;DHT22;7484;49.906;9.058;2023-04-09T09:58:44;12.80;99.90
14786;DHT22;7484;49.906;9.058;2023-04-09T10:01:13;13.30;99.90
14786;DHT22;7484;49.906;9.058;2023-04-09T10:03:43;13.50;99.90
14786;DHT22;7484;49.906;9.058;2023-04-09T10:06:12;13.30;99.90
14786;DHT22;7484;49.906;9.058;2023-04-09T10:08:41;12.90;99.90
14786;DHT22;7484;49.906;9.058;2023-04-09T10:11:08;12.90;99.90
14786;DHT22;7484;49.906;9.058;2023-04-09T10:13:38;12.80;99.90
14786;DHT22;7484;49.906;9.058;2023-04-09T10:16:06;13.10;99.90
14786;DHT22;7484;49.906;9.058;2023-04-09T10:18:34;13.20;99.90
14786;DHT22;7484;49.906;9.058;2023-04-09T10:21:06;13.20;99.90
14786;DHT22;7484;49.906;9.058;2023-04-09T10:23:37;13.40;99.90
14786;DHT22;7484;49.906;9.058;2023-04-09T10:26:04;13.90;99.90
14786;DHT22;7484;49.906;9.058;2023-04-09T10:28:31;14.30;99.90
14786;DHT22;7484;49.906;9.058;2023-04-09T10:30:58;14.40;99.90
14786;DHT22;7484;49.906;9.058;2023-04-09T10:33:26;14.30;99.90
14786;DHT22;7484;49.906;9.058;2023-04-09T10:35:58;14.10;99.90
14786;DHT22;7484;49.906;9.058;2023-04-09T10:38:36;13.80;99.90
14786;DHT22;7484;49.906;9.058;2023-04-09T10:41:12;13.80;99.90
14786;DHT22;7484;49.906;9.058;2023-04-09T10:43:39;13.90;99.90
14786;DHT22;7484;49.906;9.058;2023-04-09T10:46:23;13.90;99.90
14786;DHT22;7484;49.906;9.058;2023-04-09T10:49:06;13.90;99.90
14786;DHT22;7484;49.906;9.058;2023-04-09T10:51:35;14.00;99.90
14786;DHT22;7484;49.906;9.058;2023-04-09T10:54:03;14.20;99.20
14786;DHT22;7484;49.906;9.058;2023-04-09T10:56:31;14.10;99.10
14786;DHT22;7484;49.906;9.058;2023-04-09T10:58:58;14.00;99.50
14786;DHT22;7484;49.906;9.058;2023-04-09T11:01:25;14.00;99.80
14786;DHT22;7484;49.906;9.058;2023-04-09T11:04:07;14.10;99.70
14786;DHT22;7484;49.906;9.058;2023-04-09T11:06:39;14.10;99.30
14786;DHT22;7484;49.906;9.058;2023-04-09T11:09:07;14.10;99.80
14786;DHT22;7484;49.906;9.058;2023-04-09T11:11:34;14.40;99.60
14786;DHT22;7484;49.906;9.058;2023-04-09T11:14:01;14.50;98.40
14786;DHT22;7484;49.906;9.058;2023-04-09T11:16:28;14.60;98.50
14786;DHT22;7484;49.906;9.058;2023-04-09T11:18:55;15.20;97.70
14786;DHT22;7484;49.906;9.058;2023-04-09T11:21:26;15.80;96.30
14786;DHT22;7484;49.906;9.058;2023-04-09T11:23:54;15.90;94.40
14786;DHT22;7484;49.906;9.058;2023-04-09T11:26:25;15.70;95.10
14786;DHT22;7484;49.906;9.058;2023-04-09T11:29:04;15.00;94.40
14786;DHT22;7484;49.906;9.058;2023-04-09T11:31:30;15.40;95.20
14786;DHT22;7484;49.906;9.058;2023-04-09T11:33:57;15.30;95.50
14786;DHT22;7484;49.906;9.058;2023-04-09T11:36:24;15.20;96.20
14786;DHT22;7484;49.906;9.058;2023-04-09T11:38:53;14.70;95.10
14786;DHT22;7484;49.906;9.058;2023-04-09T11:41:32;14.50;94.50
14786;DHT22;7484;49.906;9.058;2023-04-09T11:44:01;14.90;95.70
14786;DHT22;7484;49.906;9.058;2023-04-09T11:46:28;15.30;94.30
14786;DHT22;7484;49.906;9.058;2023-04-09T11:48:55;15.30;94.00
14786;DHT22;7484;49.906;9.058;2023-04-09T11:51:22;15.00;93.00
14786;DHT22;7484;49.906;9.058;2023-04-09T11:53:49;15.30;93.80
14786;DHT22;7484;49.906;9.058;2023-04-09T11:56:17;15.50;93.30
14786;DHT22;7484;49.906;9.058;2023-04-09T11:58:45;15.40;91.40
14786;DHT22;7484;49.906;9.058;2023-04-09T12:01:13;15.40;92.00
14786;DHT22;7484;49.906;9.058;2023-04-09T12:03:40;15.60;93.40
14786;DHT22;7484;49.906;9.058;2023-04-09T12:06:07;15.80;93.40
14786;DHT22;7484;49.906;9.058;2023-04-09T12:08:34;15.40;91.20
14786;DHT22;7484;49.906;9.058;2023-04-09T12:11:08;14.90;91.90
14786;DHT22;7484;49.906;9.058;2023-04-09T12:13:37;15.30;92.50
14786;DHT22;7484;49.906;9.058;2023-04-09T12:16:07;15.80;92.10
14786;DHT22;7484;49.906;9.058;2023-04-09T12:18:35;15.80;91.70
14786;DHT22;7484;49.906;9.058;2023-04-09T12:21:02;15.50;90.10
14786;DHT22;7484;49.906;9.058;2023-04-09T12:23:29;15.30;91.10
14786;DHT22;7484;49.906;9.058;2023-04-09T12:25:56;15.20;91.50
14786;DHT22;7484;49.906;9.058;2023-04-09T12:28:25;15.50;92.80
14786;DHT22;7484;49.906;9.058;2023-04-09T12:30:53;15.50;92.70
14786;DHT22;7484;49.906;9.058;2023-04-09T12:33:21;15.60;92.90
14786;DHT22;7484;49.906;9.058;2023-04-09T12:35:48;15.70;91.60
14786;DHT22;7484;49.906;9.058;2023-04-09T12:38:14;15.60;91.40
14786;DHT22;7484;49.906;9.058;2023-04-09T12:40:41;15.60;91.30
14786;DHT22;7484;49.906;9.058;2023-04-09T12:43:08;15.70;91.20
14786;DHT22;7484;49.906;9.058;2023-04-09T12:45:35;15.80;90.40
14786;DHT22;7484;49.906;9.058;2023-04-09T12:48:03;16.00;90.50
14786;DHT22;7484;49.906;9.058;2023-04-09T12:50:30;16.20;90.00
14786;DHT22;7484;49.906;9.058;2023-04-09T12:52:57;16.40;88.10
14786;DHT22;7484;49.906;9.058;2023-04-09T12:55:24;16.30;88.40
14786;DHT22;7484;49.906;9.058;2023-04-09T12:57:52;16.00;90.00
14786;DHT22;7484;49.906;9.058;2023-04-09T13:00:19;16.40;87.90
14786;DHT22;7484;49.906;9.058;2023-04-09T13:02:45;16.50;87.80
14786;DHT22;7484;49.906;9.058;2023-04-09T13:05:13;16.40;89.20
14786;DHT22;7484;49.906;9.058;2023-04-09T13:07:40;16.20;89.30
14786;DHT22;7484;49.906;9.058;2023-04-09T13:10:08;16.10;88.20
14786;DHT22;7484;49.906;9.058;2023-04-09T13:12:35;16.30;87.60
14786;DHT22;7484;49.906;9.058;2023-04-09T13:15:02;16.70;88.20
14786;DHT22;7484;49.906;9.058;2023-04-09T13:17:28;17.10;83.00
14786;DHT22;7484;49.906;9.058;2023-04-09T13:19:55;17.30;82.80
14786;DHT22;7484;49.906;9.058;2023-04-09T13:22:23;17.50;81.40
14786;DHT22;7484;49.906;9.058;2023-04-09T13:24:50;17.70;79.90
14786;DHT22;7484;49.906;9.058;2023-04-09T13:27:17;17.80;80.90
14786;DHT22;7484;49.906;9.058;2023-04-09T13:29:43;17.60;79.30
14786;DHT22;7484;49.906;9.058;2023-04-09T13:32:10;17.40;78.90
14786;DHT22;7484;49.906;9.058;2023-04-09T13:34:38;17.50;79.20
14786;DHT22;7484;49.906;9.058;2023-04-09T13:37:05;17.80;78.20
14786;DHT22;7484;49.906;9.058;2023-04-09T13:39:33;17.60;80.50
14786;DHT22;7484;49.906;9.058;2023-04-09T13:42:00;17.40;78.20
14786;DHT22;7484;49.906;9.058;2023-04-09T13:44:27;17.40;78.30
14786;DHT22;7484;49.906;9.058;2023-04-09T13:46:54;17.20;78.00
14786;DHT22;7484;49.906;9.058;2023-04-09T13:49:21;17.00;79.50
14786;DHT22;7484;49.906;9.058;2023-04-09T13:51:48;16.90;79.50
14786;DHT22;7484;49.906;9.058;2023-04-09T13:54:15;17.20;77.30
14786;DHT22;7484;49.906;9.058;2023-04-09T13:56:43;17.00;77.30
14786;DHT22;7484;49.906;9.058;2023-04-09T13:59:10;16.70;76.80
14786;DHT22;7484;49.906;9.058;2023-04-09T14:01:37;16.40;78.10
14786;DHT22;7484;49.906;9.058;2023-04-09T14:04:03;16.50;78.70
14786;DHT22;7484;49.906;9.058;2023-04-09T14:06:30;16.90;79.90
14786;DHT22;7484;49.906;9.058;2023-04-09T14:08:57;17.00;79.60
14786;DHT22;7484;49.906;9.058;2023-04-09T14:11:24;17.00;81.60
14786;DHT22;7484;49.906;9.058;2023-04-09T14:13:52;17.10;81.60
14786;DHT22;7484;49.906;9.058;2023-04-09T14:16:18;17.20;82.40
14786;DHT22;7484;49.906;9.058;2023-04-09T14:18:45;17.30;80.00
14786;DHT22;7484;49.906;9.058;2023-04-09T14:21:12;17.40;77.80
14786;DHT22;7484;49.906;9.058;2023-04-09T14:23:39;17.70;76.50
14786;DHT22;7484;49.906;9.058;2023-04-09T14:26:06;18.20;75.80
14786;DHT22;7484;49.906;9.058;2023-04-09T14:28:33;18.30;76.70
14786;DHT22;7484;49.906;9.058;2023-04-09T14:31:01;18.50;76.30
14786;DHT22;7484;49.906;9.058;2023-04-09T14:33:29;18.80;75.20
14786;DHT22;7484;49.906;9.058;2023-04-09T14:35:56;19.20;73.30
14786;DHT22;7484;49.906;9.058;2023-04-09T14:38:23;19.30;72.70
14786;DHT22;7484;49.906;9.058;2023-04-09T14:40:50;19.00;74.00
14786;DHT22;7484;49.906;9.058;2023-04-09T14:43:17;18.40;73.80
14786;DHT22;7484;49.906;9.058;2023-04-09T14:45:44;18.00;74.10
14786;DHT22;7484;49.906;9.058;2023-04-09T14:48:12;17.50;75.50
14786;DHT22;7484;49.906;9.058;2023-04-09T14:50:38;17.20;75.00
14786;DHT22;7484;49.906;9.058;2023-04-09T14:53:05;17.00;76.30
14786;DHT22;7484;49.906;9.058;2023-04-09T14:55:32;16.70;76.80
14786;DHT22;7484;49.906;9.058;2023-04-09T14:57:59;16.60;77.60
14786;DHT22;7484;49.906;9.058;2023-04-09T15:00:28;16.40;78.00
14786;DHT22;7484;49.906;9.058;2023-04-09T15:02:54;16.30;77.70
14786;DHT22;7484;49.906;9.058;2023-04-09T15:05:23;16.30;80.00
14786;DHT22;7484;49.906;9.058;2023-04-09T15:07:50;16.60;80.90
14786;DHT22;7484;49.906;9.058;2023-04-09T15:10:18;17.00;78.30
14786;DHT22;7484;49.906;9.058;2023-04-09T15:12:45;17.60;77.80
14786;DHT22;7484;49.906;9.058;2023-04-09T15:15:11;18.30;74.80
14786;DHT22;7484;49.906;9.058;2023-04-09T15:17:39;18.70;74.10
14786;DHT22;7484;49.906;9.058;2023-04-09T15:20:06;19.10;73.00
14786;DHT22;7484;49.906;9.058;2023-04-09T15:22:34;19.20;72.10
14786;DHT22;7484;49.906;9.058;2023-04-09T15:25:01;18.70;71.30
14786;DHT22;7484;49.906;9.058;2023-04-09T15:27:28;18.10;72.50
14786;DHT22;7484;49.906;9.058;2023-04-09T15:29:54;18.10;73.00
14786;DHT22;7484;49.906;9.058;2023-04-09T15:32:21;18.40;72.30
14786;DHT22;7484;49.906;9.058;2023-04-09T15:34:48;18.70;71.00
14786;DHT22;7484;49.906;9.058;2023-04-09T15:37:15;18.70;70.70
14786;DHT22;7484;49.906;9.058;2023-04-09T15:39:43;19.10;70.30
14786;DHT22;7484;49.906;9.058;2023-04-09T15:42:10;18.90;70.10
14786;DHT22;7484;49.906;9.058;2023-04-09T15:44:36;18.30;70.60
14786;DHT22;7484;49.906;9.058;2023-04-09T15:47:03;17.70;72.20
14786;DHT22;7484;49.906;9.058;2023-04-09T15:49:30;17.10;73.00
14786;DHT22;7484;49.906;9.058;2023-04-09T15:51:57;16.80;73.40
14786;DHT22;7484;49.906;9.058;2023-04-09T15:54:23;17.10;74.50
14786;DHT22;7484;49.906;9.058;2023-04-09T15:56:52;17.70;72.80
14786;DHT22;7484;49.906;9.058;2023-04-09T15:59:18;17.90;71.50
14786;DHT22;7484;49.906;9.058;2023-04-09T16:01:45;18.10;71.60
14786;DHT22;7484;49.906;9.058;2023-04-09T16:04:13;18.50;69.70